Time;durP1;ratioP1;P1;durP2;ratioP2;P2;SDS_P1;SDS_P2;PMS_P1;PMS_P2;Temp;Humidity;BMP_temperature;BMP_pressure;BME280_temperature;BME280_humidity;BME280_pressure;Samples;Min_cycle;Max_cycle;Signal;HPM_P1;HPM_P2
2021/07/06 00:01:10;;;;;;;1.80;1.20;;;;;;;18.75;70.17;98603.66;4970773;28;20442;-76
2021/07/06 00:03:35;;;;;;;1.42;1.30;;;;;;;18.76;70.09;98607.22;4971198;28;20074;-76
2021/07/06 00:06:01;;;;;;;2.15;1.20;;;;;;;18.73;70.77;98599.47;4971327;28;20038;-74
2021/07/06 00:08:27;;;;;;;0.98;0.88;;;;;;;18.73;70.60;98600.31;4954118;28;20052;-75
2021/07/06 00:10:52;;;;;;;1.92;1.63;;;;;;;18.75;70.58;98598.31;4970839;28;20128;-74
2021/07/06 00:13:18;;;;;;;3.47;1.63;;;;;;;18.77;70.63;98592.84;4954064;28;20356;-75
2021/07/06 00:15:44;;;;;;;1.75;1.13;;;;;;;18.80;70.54;98597.88;4970791;28;20043;-75
2021/07/06 00:18:09;;;;;;;7.97;1.45;;;;;;;18.80;70.85;98603.22;4970324;28;20464;-75
2021/07/06 00:20:35;;;;;;;2.42;1.50;;;;;;;18.82;70.83;98601.22;4961598;28;20043;-76
2021/07/06 00:23:05;;;;;;;1.85;1.30;;;;;;;18.84;70.71;98588.56;4969220;28;20089;-74
2021/07/06 00:25:31;;;;;;;3.60;1.55;;;;;;;18.83;70.74;98589.56;4973054;28;20490;-75
2021/07/06 00:27:57;;;;;;;1.50;1.20;;;;;;;18.82;70.69;98582.53;4973411;28;20410;-75
2021/07/06 00:30:24;;;;;;;2.10;1.38;;;;;;;18.79;70.84;98569.50;4956109;28;20035;-74
2021/07/06 00:32:53;;;;;;;0.90;0.90;;;;;;;18.77;71.00;98569.66;4974150;28;20027;-75
2021/07/06 00:35:19;;;;;;;5.18;1.40;;;;;;;18.75;71.09;98571.63;4973705;28;20031;-75
2021/07/06 00:37:45;;;;;;;1.77;1.30;;;;;;;18.71;71.45;98569.44;4973743;28;20090;-75
2021/07/06 00:40:11;;;;;;;2.95;1.70;;;;;;;18.64;72.04;98564.72;4972857;28;20134;-76
2021/07/06 00:42:42;;;;;;;3.70;1.60;;;;;;;18.60;71.87;98562.50;4971631;28;20616;-76
2021/07/06 00:45:10;;;;;;;2.95;1.98;;;;;;;18.47;71.88;98562.94;4973329;28;20406;-74
2021/07/06 00:47:38;;;;;;;3.67;2.22;;;;;;;18.39;72.59;98568.22;4955785;28;20039;-74
2021/07/06 00:50:08;;;;;;;3.28;1.45;;;;;;;18.32;72.52;98549.31;4953912;28;20403;-74
2021/07/06 00:52:33;;;;;;;2.53;1.50;;;;;;;18.32;72.17;98551.97;4956963;28;20027;-74
2021/07/06 00:54:58;;;;;;;2.92;1.40;;;;;;;18.28;72.96;98547.09;4975762;28;20483;-73
2021/07/06 00:57:30;;;;;;;2.22;1.50;;;;;;;18.21;72.77;98537.06;4977916;28;20058;-75
2021/07/06 01:00:09;;;;;;;2.20;1.42;;;;;;;18.21;72.83;98545.06;4975843;28;20027;-74
2021/07/06 01:02:35;;;;;;;5.93;1.75;;;;;;;18.18;72.98;98555.19;4934384;28;20034;-73
2021/07/06 01:05:06;;;;;;;2.10;1.30;;;;;;;18.15;72.89;98543.00;4959200;28;20405;-74
2021/07/06 01:07:32;;;;;;;5.28;1.20;;;;;;;18.08;72.50;98541.94;4976051;28;20766;-76
2021/07/06 01:09:57;;;;;;;4.85;1.83;;;;;;;18.07;72.50;98545.63;4967519;28;20042;-75
2021/07/06 01:12:23;;;;;;;4.65;1.77;;;;;;;18.08;72.29;98531.28;4976521;28;20453;-74
2021/07/06 01:14:49;;;;;;;3.90;1.67;;;;;;;18.10;72.38;98533.81;4976376;28;20033;-76
2021/07/06 01:17:14;;;;;;;1.45;1.05;;;;;;;18.13;72.23;98526.31;4977541;28;20035;-77
2021/07/06 01:19:42;;;;;;;2.70;1.40;;;;;;;18.15;71.75;98524.34;4980352;28;20034;-75
2021/07/06 01:22:08;;;;;;;3.72;1.40;;;;;;;18.20;71.68;98531.88;4978958;28;20063;-75
2021/07/06 01:24:37;;;;;;;3.58;1.25;;;;;;;18.20;71.39;98516.69;4974452;28;20106;-75
2021/07/06 01:27:04;;;;;;;2.08;1.35;;;;;;;18.20;71.33;98514.03;4972762;28;20581;-75
2021/07/06 01:29:29;;;;;;;3.63;1.70;;;;;;;18.20;71.35;98503.34;4973060;28;20093;-74
2021/07/06 01:31:54;;;;;;;4.78;1.40;;;;;;;18.21;71.20;98488.19;4972800;28;20031;-76
2021/07/06 01:34:20;;;;;;;2.97;1.60;;;;;;;18.23;71.04;98487.03;4956276;28;20034;-76
2021/07/06 01:36:46;;;;;;;1.70;1.13;;;;;;;18.26;70.70;98469.88;4972002;28;20761;-76
2021/07/06 01:39:12;;;;;;;1.60;1.13;;;;;;;18.31;70.78;98480.09;4972379;28;20047;-75
2021/07/06 01:41:42;;;;;;;4.40;1.50;;;;;;;18.32;70.81;98484.44;4972605;28;20073;-74
2021/07/06 01:44:24;;;;;;;1.85;1.38;;;;;;;18.34;70.62;98493.13;4972557;28;20051;-76
2021/07/06 01:46:50;;;;;;;1.90;1.27;;;;;;;18.35;70.44;98484.94;4972287;28;20039;-75
2021/07/06 01:49:17;;;;;;;2.30;1.30;;;;;;;18.39;70.45;98488.16;4971965;28;20483;-74
2021/07/06 01:51:43;;;;;;;3.88;1.80;;;;;;;18.40;71.07;98489.81;4967066;28;20046;-76
2021/07/06 01:54:09;;;;;;;2.55;1.30;;;;;;;18.41;70.89;98504.81;4991728;28;20038;-76
2021/07/06 01:56:40;;;;;;;2.28;1.55;;;;;;;18.41;70.33;98489.69;4991408;28;20061;-76
2021/07/06 01:59:06;;;;;;;1.85;1.35;;;;;;;18.43;70.16;98481.50;4991592;28;20068;-75
2021/07/06 02:01:32;;;;;;;2.72;1.48;;;;;;;18.44;70.43;98475.19;4991484;28;20100;-74
2021/07/06 02:03:58;;;;;;;4.68;1.60;;;;;;;18.43;70.01;98470.81;4991708;28;20046;-73
2021/07/06 02:06:23;;;;;;;3.22;1.75;;;;;;;18.45;69.83;98464.34;4991656;28;20165;-74
2021/07/06 02:08:49;;;;;;;7.88;1.55;;;;;;;18.48;69.52;98465.00;4992472;28;20061;-75
2021/07/06 02:11:14;;;;;;;4.85;1.27;;;;;;;18.53;69.61;98468.88;4974326;28;20048;-75
2021/07/06 02:13:39;;;;;;;3.25;1.60;;;;;;;18.60;69.21;98479.75;4992240;28;20554;-75
2021/07/06 02:16:05;;;;;;;3.65;1.50;;;;;;;18.66;68.85;98474.63;4974534;28;20112;-76
2021/07/06 02:18:32;;;;;;;2.35;1.42;;;;;;;18.69;68.91;98465.47;4992332;28;20130;-76
2021/07/06 02:20:59;;;;;;;2.15;1.40;;;;;;;18.73;68.55;98471.31;4991552;28;20514;-77
2021/07/06 02:23:26;;;;;;;3.10;1.65;;;;;;;18.75;68.37;98470.16;4991897;28;20487;-74
2021/07/06 02:25:52;;;;;;;2.42;1.42;;;;;;;18.79;68.26;98474.22;4993224;28;20486;-75
2021/07/06 02:28:18;;;;;;;4.38;1.63;;;;;;;18.83;67.96;98464.06;4973596;28;20036;-75
2021/07/06 02:30:44;;;;;;;7.88;1.75;;;;;;;18.85;67.68;98449.56;4992492;28;20095;-75
2021/07/06 02:33:10;;;;;;;3.70;1.70;;;;;;;18.91;67.45;98447.25;4991166;28;20046;-75
2021/07/06 02:35:36;;;;;;;2.80;1.50;;;;;;;18.95;67.33;98446.75;4990787;28;20150;-76
2021/07/06 02:38:02;;;;;;;3.28;1.70;;;;;;;18.97;67.25;98443.91;4990489;28;20089;-75
2021/07/06 02:40:29;;;;;;;3.10;1.95;;;;;;;18.99;67.24;98441.91;4990631;28;20118;-74
2021/07/06 02:42:55;;;;;;;7.93;1.80;;;;;;;19.00;67.10;98436.41;4972972;28;20034;-74
2021/07/06 02:45:21;;;;;;;2.85;1.88;;;;;;;19.03;67.08;98446.78;4991101;28;20134;-73
2021/07/06 02:47:47;;;;;;;6.68;1.55;;;;;;;19.04;66.67;98435.06;4989417;28;20491;-74
2021/07/06 02:50:13;;;;;;;4.88;1.83;;;;;;;19.08;66.56;98433.75;4990406;28;20049;-74
2021/07/06 02:52:39;;;;;;;5.45;1.95;;;;;;;19.11;66.47;98429.94;4989381;28;20026;-76
2021/07/06 02:55:05;;;;;;;5.78;1.73;;;;;;;19.15;66.58;98417.06;4990022;28;20038;-74
2021/07/06 02:57:35;;;;;;;5.05;2.05;;;;;;;19.19;66.32;98418.41;4989647;28;20402;-74
2021/07/06 03:00:04;;;;;;;4.00;1.67;;;;;;;19.21;66.04;98406.56;4986710;28;20038;-74
2021/07/06 03:02:30;;;;;;;3.90;1.95;;;;;;;19.20;65.92;98402.25;4989713;28;20049;-73
2021/07/06 03:04:55;;;;;;;3.50;1.90;;;;;;;19.24;65.91;98400.06;4990124;28;20031;-74
2021/07/06 03:07:20;;;;;;;3.20;1.55;;;;;;;19.23;65.90;98388.53;4990827;28;20544;-74
2021/07/06 03:09:46;;;;;;;3.80;1.50;;;;;;;19.28;65.54;98388.06;4991699;28;20030;-74
2021/07/06 03:12:11;;;;;;;3.45;1.58;;;;;;;19.31;65.42;98407.25;4995112;28;20034;-76
2021/07/06 03:14:36;;;;;;;4.93;2.13;;;;;;;19.35;65.41;98407.78;4993345;28;20049;-74
2021/07/06 03:17:02;;;;;;;4.95;1.73;;;;;;;19.37;65.09;98396.91;4992237;28;20383;-73
2021/07/06 03:19:27;;;;;;;4.72;1.38;;;;;;;19.40;64.97;98393.91;4990553;28;20089;-73
2021/07/06 03:21:53;;;;;;;3.95;1.83;;;;;;;19.43;64.68;98401.59;4990740;28;20038;-74
2021/07/06 03:24:18;;;;;;;3.88;1.55;;;;;;;19.47;64.70;98408.28;4990441;28;20034;-75
2021/07/06 03:26:44;;;;;;;5.18;1.63;;;;;;;19.49;64.52;98407.13;4989830;28;20049;-73
2021/07/06 03:29:09;;;;;;;8.77;1.83;;;;;;;19.50;64.74;98390.06;4990137;28;20049;-74
2021/07/06 03:31:34;;;;;;;6.28;1.88;;;;;;;19.52;65.14;98387.22;4989833;28;20031;-73
2021/07/06 03:34:00;;;;;;;6.68;1.98;;;;;;;19.53;65.77;98386.22;4989758;28;20042;-74
2021/07/06 03:36:25;;;;;;;3.38;1.67;;;;;;;19.53;65.91;98362.16;4989326;28;20033;-73
2021/07/06 03:38:50;;;;;;;4.65;2.10;;;;;;;19.53;66.16;98363.00;4990149;28;20034;-73
2021/07/06 03:41:16;;;;;;;2.97;1.70;;;;;;;19.52;66.66;98363.19;4972283;28;20089;-74
2021/07/06 03:43:41;;;;;;;2.92;1.52;;;;;;;19.48;66.95;98362.66;4990050;28;20489;-74
2021/07/06 03:46:06;;;;;;;2.35;1.80;;;;;;;19.50;66.73;98358.00;4989985;28;20042;-73
2021/07/06 03:48:32;;;;;;;2.67;1.85;;;;;;;19.50;67.04;98347.28;4972516;28;20034;-74
2021/07/06 03:50:57;;;;;;;6.22;1.88;;;;;;;19.51;66.90;98346.28;4972305;28;20046;-75
2021/07/06 03:53:22;;;;;;;5.72;1.75;;;;;;;19.53;67.18;98356.81;4969460;28;20045;-74
2021/07/06 03:55:48;;;;;;;2.90;1.83;;;;;;;19.55;66.90;98352.16;4989850;28;20034;-73
2021/07/06 03:58:13;;;;;;;5.00;1.95;;;;;;;19.56;66.63;98356.47;4972895;28;20046;-75
2021/07/06 04:00:39;;;;;;;5.30;1.95;;;;;;;19.59;66.73;98356.16;4992661;28;20030;-74
2021/07/06 04:03:04;;;;;;;10.55;1.83;;;;;;;19.60;66.12;98343.63;4993670;28;20038;-76
2021/07/06 04:05:30;;;;;;;3.00;1.83;;;;;;;19.64;66.19;98336.91;4993839;28;20050;-76
2021/07/06 04:07:56;;;;;;;2.55;1.63;;;;;;;19.63;66.01;98344.09;4993216;28;20041;-74
2021/07/06 04:10:22;;;;;;;3.65;1.80;;;;;;;19.65;65.83;98355.47;4993499;28;20465;-74
2021/07/06 04:12:49;;;;;;;3.67;1.75;;;;;;;19.67;65.45;98353.50;4993441;28;20137;-75
2021/07/06 04:15:16;;;;;;;2.65;1.92;;;;;;;19.71;65.75;98364.69;4993488;28;20030;-75
2021/07/06 04:17:42;;;;;;;3.45;1.88;;;;;;;19.72;65.90;98371.72;4976029;28;20035;-74
2021/07/06 04:20:09;;;;;;;3.97;2.15;;;;;;;19.72;65.47;98374.38;4993309;28;20038;-74
2021/07/06 04:22:35;;;;;;;4.32;2.28;;;;;;;19.74;65.42;98375.06;4993287;28;20043;-74
2021/07/06 04:25:02;;;;;;;6.53;2.00;;;;;;;19.73;65.73;98384.91;4993216;28;20120;-74
2021/07/06 04:27:28;;;;;;;2.85;1.60;;;;;;;19.75;65.80;98394.59;4975447;28;20038;-75
2021/07/06 04:29:53;;;;;;;3.78;2.03;;;;;;;19.76;65.87;98397.09;4993462;28;20037;-75
2021/07/06 04:32:19;;;;;;;5.45;1.92;;;;;;;19.77;66.36;98396.13;4993366;28;20113;-75
2021/07/06 04:34:45;;;;;;;5.88;1.92;;;;;;;19.76;66.84;98397.09;4975777;28;20407;-74
2021/07/06 04:37:13;;;;;;;3.58;2.25;;;;;;;19.74;67.50;98415.19;4992369;28;20407;-75
2021/07/06 04:39:40;;;;;;;3.10;2.10;;;;;;;19.71;67.21;98421.69;4993705;28;20050;-75
2021/07/06 04:42:07;;;;;;;4.10;2.00;;;;;;;19.70;67.82;98424.53;4996061;28;20050;-74
2021/07/06 04:44:32;;;;;;;3.17;1.90;;;;;;;19.70;68.11;98435.22;4996622;28;20034;-75
2021/07/06 04:46:58;;;;;;;4.78;2.22;;;;;;;19.68;68.45;98466.63;4998569;28;20698;-74
2021/07/06 04:49:23;;;;;;;5.25;2.08;;;;;;;19.66;68.46;98477.44;5000771;28;20490;-74
2021/07/06 04:51:48;;;;;;;2.53;1.98;;;;;;;19.63;68.89;98501.03;5003153;28;20038;-74
2021/07/06 04:54:14;;;;;;;3.40;2.03;;;;;;;19.57;69.80;98520.41;5002261;28;20034;-73
2021/07/06 04:56:39;;;;;;;2.92;1.80;;;;;;;19.53;70.59;98527.91;4982940;28;20043;-75
2021/07/06 04:59:05;;;;;;;7.93;2.80;;;;;;;19.47;70.96;98540.09;4973983;28;20122;-74
2021/07/06 05:01:30;;;;;;;3.45;2.13;;;;;;;19.40;71.84;98548.94;4973164;28;20058;-74
2021/07/06 05:03:57;;;;;;;6.43;2.33;;;;;;;19.25;72.79;98552.22;4973545;28;20038;-74
2021/07/06 05:06:23;;;;;;;9.20;2.35;;;;;;;19.15;73.80;98564.88;4972976;28;20065;-73
2021/07/06 05:08:48;;;;;;;3.20;2.13;;;;;;;19.00;74.30;98545.94;4972648;28;20043;-74
2021/07/06 05:11:16;;;;;;;3.33;2.20;;;;;;;18.90;75.51;98523.81;4972396;28;20049;-74
2021/07/06 05:13:41;;;;;;;6.03;2.35;;;;;;;18.77;75.37;98539.47;4973459;28;20117;-75
2021/07/06 05:16:07;;;;;;;4.85;1.90;;;;;;;18.68;76.02;98522.53;4973588;28;20636;-73
2021/07/06 05:18:32;;;;;;;4.32;2.03;;;;;;;18.63;75.72;98520.34;4974098;28;20462;-73
2021/07/06 05:20:58;;;;;;;5.70;2.28;;;;;;;18.55;76.32;98511.44;4973087;28;20038;-75
2021/07/06 05:23:23;;;;;;;5.43;2.20;;;;;;;18.49;76.30;98517.41;4973484;28;20040;-74
2021/07/06 05:25:48;;;;;;;4.18;2.42;;;;;;;18.43;76.34;98516.19;4972597;28;20035;-74
2021/07/06 05:28:14;;;;;;;2.78;1.80;;;;;;;18.42;76.11;98515.34;4954850;28;20046;-74
2021/07/06 05:30:39;;;;;;;3.50;1.65;;;;;;;18.37;76.04;98495.47;4972342;28;20462;-74
2021/07/06 05:33:04;;;;;;;3.20;2.25;;;;;;;18.33;76.23;98475.44;4972492;28;20725;-74
2021/07/06 05:35:30;;;;;;;2.42;1.73;;;;;;;18.28;76.47;98485.75;4972371;28;20037;-74
2021/07/06 05:37:55;;;;;;;2.00;1.58;;;;;;;18.29;76.36;98487.44;4972578;28;20042;-75
2021/07/06 05:40:21;;;;;;;2.30;1.40;;;;;;;18.27;76.03;98476.06;4955371;28;20475;-75
2021/07/06 05:42:46;;;;;;;2.70;1.52;;;;;;;18.25;75.00;98468.22;4972794;28;20379;-74
2021/07/06 05:45:12;;;;;;;3.55;1.60;;;;;;;18.22;74.63;98461.38;4948280;28;20043;-76
2021/07/06 05:47:39;;;;;;;1.80;1.45;;;;;;;18.20;74.61;98476.69;4971178;28;20618;-74
2021/07/06 05:50:15;;;;;;;2.97;1.27;;;;;;;18.19;73.82;98475.03;4972292;28;20045;-74
2021/07/06 05:52:41;;;;;;;1.42;1.17;;;;;;;18.19;74.43;98475.03;4972053;28;20058;-73
2021/07/06 05:55:08;;;;;;;3.42;1.65;;;;;;;18.19;73.41;98459.03;4972029;28;20038;-73
2021/07/06 05:57:36;;;;;;;1.60;1.50;;;;;;;18.13;73.59;98456.13;4971948;28;20039;-74
2021/07/06 06:00:06;;;;;;;1.58;1.40;;;;;;;18.00;73.72;98441.38;4955384;28;20043;-74
2021/07/06 06:02:31;;;;;;;3.53;1.52;;;;;;;17.93;74.05;98407.50;4971653;28;20035;-75
2021/07/06 06:04:56;;;;;;;2.70;1.50;;;;;;;17.90;73.58;98376.66;4972352;28;20376;-73
2021/07/06 06:07:23;;;;;;;1.17;1.08;;;;;;;17.86;73.57;98372.63;4971595;28;20639;-75
2021/07/06 06:09:49;;;;;;;4.75;1.63;;;;;;;17.82;73.83;98344.63;4971749;28;20394;-74
2021/07/06 06:12:14;;;;;;;1.80;1.15;;;;;;;17.78;73.83;98320.06;4971539;28;20046;-76
2021/07/06 06:14:39;;;;;;;4.63;1.35;;;;;;;17.70;74.69;98301.34;4954756;28;20039;-74
2021/07/06 06:17:05;;;;;;;6.05;1.95;;;;;;;17.64;74.51;98293.13;4971495;28;20047;-75
2021/07/06 06:19:30;;;;;;;2.35;1.52;;;;;;;17.62;75.41;98253.31;4972079;28;20046;-75
2021/07/06 06:21:56;;;;;;;2.92;1.30;;;;;;;17.57;74.70;98279.59;4971066;28;20075;-76
2021/07/06 06:24:21;;;;;;;2.55;1.40;;;;;;;17.59;74.66;98298.94;4971711;28;20042;-75
2021/07/06 06:26:49;;;;;;;1.38;1.20;;;;;;;17.69;74.98;98272.19;4971861;28;20030;-74
2021/07/06 06:29:15;;;;;;;1.42;1.33;;;;;;;17.78;73.10;98244.59;4971855;28;20037;-75
2021/07/06 06:31:40;;;;;;;1.58;1.30;;;;;;;17.86;73.30;98243.81;4970963;28;20026;-75
2021/07/06 06:34:05;;;;;;;1.38;1.10;;;;;;;17.96;72.19;98250.69;4970246;28;20042;-75
2021/07/06 06:36:31;;;;;;;3.50;1.15;;;;;;;18.09;71.03;98300.06;4980547;28;20038;-74
2021/07/06 06:38:56;;;;;;;1.65;1.10;;;;;;;18.18;71.27;98325.78;4989493;28;20109;-74
2021/07/06 06:41:21;;;;;;;1.60;1.33;;;;;;;18.22;71.35;98319.16;4988235;28;20027;-75
2021/07/06 06:43:47;;;;;;;3.38;1.35;;;;;;;18.29;70.64;98332.69;4989084;28;20033;-75
2021/07/06 06:46:12;;;;;;;2.47;1.20;;;;;;;18.35;70.19;98342.72;4989264;28;20065;-75
2021/07/06 06:48:38;;;;;;;3.80;1.42;;;;;;;18.39;70.11;98346.75;4990221;28;20089;-75
2021/07/06 06:51:03;;;;;;;1.98;1.13;;;;;;;18.48;69.94;98355.59;4989466;28;20038;-76
2021/07/06 06:53:28;;;;;;;2.53;1.48;;;;;;;18.55;69.77;98353.97;4988976;28;20039;-74
2021/07/06 06:55:54;;;;;;;3.50;1.10;;;;;;;18.59;69.81;98364.16;4985963;28;20045;-75
2021/07/06 06:58:19;;;;;;;1.15;0.90;;;;;;;18.63;69.80;98380.66;4986829;28;20637;-75
2021/07/06 07:00:44;;;;;;;1.35;1.25;;;;;;;18.63;69.36;98384.19;4953690;28;20045;-75
2021/07/06 07:03:10;;;;;;;2.47;1.27;;;;;;;18.69;69.86;98380.03;4987608;28;20046;-76
2021/07/06 07:05:35;;;;;;;1.48;1.25;;;;;;;18.72;69.00;98386.88;4987548;28;20049;-76
2021/07/06 07:08:01;;;;;;;2.00;1.45;;;;;;;18.72;69.36;98398.41;4987602;28;20394;-74
2021/07/06 07:10:26;;;;;;;2.00;1.42;;;;;;;18.71;69.26;98395.91;4988466;28;20058;-74
2021/07/06 07:12:53;;;;;;;1.35;1.13;;;;;;;18.68;68.67;98410.41;4970546;28;20048;-74
2021/07/06 07:15:20;;;;;;;1.23;1.10;;;;;;;18.71;69.83;98426.09;4987566;28;20042;-73
2021/07/06 07:17:45;;;;;;;3.42;1.42;;;;;;;18.69;69.65;98424.59;4986068;28;20402;-75
2021/07/06 07:20:12;;;;;;;3.17;1.48;;;;;;;18.73;69.57;98428.59;4988120;28;20038;-75
2021/07/06 07:22:38;;;;;;;1.95;1.30;;;;;;;18.70;69.44;98431.59;4987970;28;20037;-76
2021/07/06 07:25:04;;;;;;;1.73;1.17;;;;;;;18.73;69.65;98441.94;4988150;28;20034;-76
2021/07/06 07:27:29;;;;;;;3.42;1.50;;;;;;;18.70;70.05;98451.09;4988210;28;20038;-75
2021/07/06 07:29:56;;;;;;;2.05;1.38;;;;;;;18.70;69.42;98451.09;4989073;28;20038;-75
2021/07/06 07:32:22;;;;;;;1.90;1.23;;;;;;;18.71;69.38;98451.97;4988426;28;21449;-75
2021/07/06 07:34:47;;;;;;;1.20;1.10;;;;;;;18.74;69.86;98452.47;4992658;28;20037;-75
2021/07/06 07:37:13;;;;;;;1.30;1.00;;;;;;;18.78;69.78;98455.69;4992539;28;20064;-76
2021/07/06 07:39:38;;;;;;;3.25;1.08;;;;;;;18.83;69.73;98448.03;4993232;28;20041;-78
2021/07/06 07:42:04;;;;;;;3.55;1.55;;;;;;;18.92;69.63;98454.25;4992687;28;20402;-74
2021/07/06 07:44:30;;;;;;;1.30;1.10;;;;;;;18.96;69.57;98452.94;4988277;28;20037;-75
2021/07/06 07:46:55;;;;;;;5.05;1.20;;;;;;;18.98;69.47;98454.44;4991226;28;20034;-75
2021/07/06 07:49:21;;;;;;;2.30;1.35;;;;;;;19.01;69.56;98461.28;4974025;28;20031;-75
2021/07/06 07:51:46;;;;;;;1.52;1.13;;;;;;;19.05;68.99;98457.28;4991564;28;20029;-75
2021/07/06 07:54:12;;;;;;;2.10;1.30;;;;;;;19.17;69.55;98460.50;4991493;28;20038;-76
2021/07/06 07:56:40;;;;;;;1.77;1.40;;;;;;;19.30;68.86;98456.34;4991924;28;20089;-75
2021/07/06 07:59:06;;;;;;;4.63;1.65;;;;;;;19.43;68.26;98447.03;4991088;28;20038;-75
2021/07/06 08:01:31;;;;;;;3.35;1.50;;;;;;;19.47;68.46;98451.88;4973791;28;20117;-75
2021/07/06 08:03:57;;;;;;;2.33;1.30;;;;;;;19.53;68.10;98461.91;4993261;28;20038;-75
2021/07/06 08:06:22;;;;;;;1.27;1.00;;;;;;;19.59;67.93;98463.09;4993320;28;20093;-75
2021/07/06 08:08:47;;;;;;;1.73;1.25;;;;;;;19.65;67.74;98467.78;4994043;28;20053;-76
2021/07/06 08:11:13;;;;;;;1.67;1.17;;;;;;;19.67;68.11;98471.16;4994003;28;20101;-75
2021/07/06 08:13:39;;;;;;;1.98;1.40;;;;;;;19.66;67.39;98479.28;4993630;28;20525;-74
2021/07/06 08:16:05;;;;;;;1.33;1.00;;;;;;;19.70;67.87;98489.53;4975885;28;20383;-75
2021/07/06 08:18:30;;;;;;;1.27;1.17;;;;;;;19.67;68.23;98502.38;4992871;28;20034;-75
2021/07/06 08:20:56;;;;;;;1.50;1.20;;;;;;;19.64;67.10;98500.00;4993349;28;20038;-74
2021/07/06 08:23:21;;;;;;;1.30;1.10;;;;;;;19.64;66.93;98513.38;4993034;28;20038;-76
2021/07/06 08:25:46;;;;;;;2.95;1.20;;;;;;;19.62;66.77;98521.56;4993588;28;20034;-75
2021/07/06 08:28:12;;;;;;;1.88;1.17;;;;;;;19.48;62.00;98517.69;4992790;28;20542;-74
2021/07/06 08:30:39;;;;;;;3.08;1.25;;;;;;;19.44;59.33;98503.00;4992855;28;20512;-75
2021/07/06 08:33:04;;;;;;;1.40;1.30;;;;;;;19.43;58.95;98520.03;4992985;28;20038;-75
2021/07/06 08:35:30;;;;;;;2.05;1.10;;;;;;;19.41;60.02;98516.66;4993361;28;20450;-75
2021/07/06 08:37:55;;;;;;;5.10;1.10;;;;;;;19.39;58.92;98521.34;4993418;28;20066;-76
2021/07/06 08:40:20;;;;;;;2.38;1.40;;;;;;;19.36;59.12;98513.66;4994062;28;20041;-75
2021/07/06 08:42:48;;;;;;;4.20;2.00;;;;;;;19.40;59.29;98517.69;4992684;28;20038;-76
2021/07/06 08:45:13;;;;;;;1.90;1.23;;;;;;;19.52;59.08;98511.03;4991852;28;20042;-75
2021/07/06 08:47:44;;;;;;;5.90;1.55;;;;;;;19.61;59.33;98514.53;4992389;28;20038;-76
2021/07/06 08:50:10;;;;;;;1.65;1.10;;;;;;;19.71;59.15;98514.44;4975850;28;20042;-75
2021/07/06 08:52:37;;;;;;;1.40;1.10;;;;;;;19.84;59.38;98522.00;4992671;28;20038;-76
2021/07/06 08:55:04;;;;;;;2.03;1.42;;;;;;;19.86;58.88;98527.97;4992392;28;20038;-76
2021/07/06 08:57:29;;;;;;;2.00;1.17;;;;;;;19.87;58.28;98530.50;4992984;28;20058;-74
2021/07/06 08:59:54;;;;;;;3.33;1.80;;;;;;;19.91;58.85;98525.63;4989483;28;20057;-76
2021/07/06 09:02:21;;;;;;;2.75;1.30;;;;;;;19.99;57.98;98516.81;4991813;28;20096;-74
2021/07/06 09:04:47;;;;;;;2.17;1.40;;;;;;;19.94;57.74;98525.34;4992402;28;20073;-76
2021/07/06 09:07:14;;;;;;;2.63;1.10;;;;;;;19.98;58.08;98532.00;4990146;28;20035;-74
2021/07/06 09:09:40;;;;;;;2.20;1.40;;;;;;;20.08;57.50;98535.38;4973719;28;20086;-74
2021/07/06 09:12:08;;;;;;;1.63;1.10;;;;;;;20.26;57.10;98519.13;4973120;28;20167;-74
2021/07/06 09:14:37;;;;;;;3.75;1.25;;;;;;;20.69;55.93;98527.78;4973086;28;20035;-76
2021/07/06 09:17:12;;;;;;;2.65;1.40;;;;;;;21.09;53.90;98533.19;4971197;28;20062;-75
2021/07/06 09:19:40;;;;;;;1.67;1.10;;;;;;;20.99;54.10;98536.06;4972819;28;20043;-76
2021/07/06 09:22:19;;;;;;;2.63;1.20;;;;;;;20.85;54.82;98544.84;4972843;28;20411;-74
2021/07/06 09:24:49;;;;;;;3.17;1.20;;;;;;;20.72;54.67;98538.19;4971850;28;20497;-74
2021/07/06 09:27:24;;;;;;;2.60;1.65;;;;;;;21.08;54.51;98543.09;4972699;28;20037;-75
2021/07/06 09:30:22;;;;;;;3.20;1.90;;;;;;;21.28;52.88;98553.41;4971298;28;20141;-76
2021/07/06 09:32:50;;;;;;;2.08;1.50;;;;;;;21.90;51.31;98539.16;4969483;28;20422;-76
2021/07/06 09:35:25;;;;;;;3.33;1.33;;;;;;;21.95;51.43;98553.69;4970233;28;20045;-74
2021/07/06 09:37:57;;;;;;;;;;;;;;;21.85;50.69;98542.38;4970151;28;20043;-75
2021/07/06 09:40:32;;;;;;;4.72;1.70;;;;;;;22.33;49.84;98553.78;4970442;28;19914;-76
2021/07/06 09:43:30;;;;;;;5.25;2.65;;;;;;;23.15;47.07;98563.72;4970602;28;20877;-76
2021/07/06 09:45:56;;;;;;;4.90;2.60;;;;;;;23.68;44.66;98550.09;4952278;28;20035;-77
2021/07/06 09:48:22;;;;;;;2.00;1.30;;;;;;;23.66;45.26;98549.47;4969702;28;20046;-75
2021/07/06 09:50:48;;;;;;;3.63;1.40;;;;;;;23.20;45.64;98545.16;4968682;28;20063;-74
2021/07/06 09:53:28;;;;;;;6.10;1.67;;;;;;;22.90;45.79;98553.22;4987820;28;20498;-75
2021/07/06 09:55:54;;;;;;;3.05;1.58;;;;;;;22.89;46.44;98562.31;4989685;28;20100;-76
2021/07/06 09:58:20;;;;;;;6.35;2.40;;;;;;;23.95;44.44;98562.03;4972178;28;20052;-75
2021/07/06 10:00:45;;;;;;;5.53;2.17;;;;;;;24.95;41.67;98558.28;4989837;28;20148;-76
2021/07/06 10:03:11;;;;;;;4.28;2.10;;;;;;;25.38;41.34;98568.94;4988724;28;20068;-74
2021/07/06 10:05:37;;;;;;;2.08;1.20;;;;;;;25.09;41.84;98580.78;4988618;28;20089;-75
2021/07/06 10:08:03;;;;;;;19.63;2.42;;;;;;;24.55;42.44;98576.06;4969877;28;20096;-74
2021/07/06 10:10:28;;;;;;;3.75;1.40;;;;;;;24.72;41.99;98587.38;4979169;28;20347;-75
2021/07/06 10:12:55;;;;;;;3.28;1.85;;;;;;;25.56;40.58;98591.84;4961265;28;20054;-76
2021/07/06 10:15:22;;;;;;;5.03;1.77;;;;;;;25.17;39.95;98596.00;4988074;28;20686;-75
2021/07/06 10:17:52;;;;;;;2.72;1.90;;;;;;;24.55;40.91;98589.53;4970385;28;20038;-76
2021/07/06 10:20:21;;;;;;;2.03;1.70;;;;;;;25.20;39.91;98579.41;4970441;28;20038;-76
2021/07/06 10:22:48;;;;;;;3.50;1.60;;;;;;;26.04;38.50;98589.97;4987882;28;20041;-75
2021/07/06 10:25:14;;;;;;;12.15;2.30;;;;;;;25.94;38.73;98588.66;4987953;28;20041;-75
2021/07/06 10:27:48;;;;;;;6.65;2.13;;;;;;;26.48;37.85;98593.97;4988265;28;20398;-74
2021/07/06 10:30:19;;;;;;;3.15;1.88;;;;;;;26.63;37.43;98596.50;4989642;28;20117;-75
2021/07/06 10:32:56;;;;;;;2.13;1.35;;;;;;;27.15;36.16;98588.53;4989721;28;20072;-76
2021/07/06 10:35:36;;;;;;;2.25;1.65;;;;;;;27.23;34.88;98592.91;4971682;28;20054;-74
2021/07/06 10:38:28;;;;;;;2.95;1.60;;;;;;;27.65;34.28;98596.91;4969630;28;20073;-75
2021/07/06 10:40:58;;;;;;;5.50;1.50;;;;;;;26.41;36.64;98611.19;4979411;28;20041;-74
2021/07/06 10:43:43;;;;;;;2.20;1.20;;;;;;;27.05;35.90;98597.06;4987855;28;20038;-75
2021/07/06 10:46:20;;;;;;;2.38;1.10;;;;;;;26.95;35.88;98596.66;4986993;28;20043;-76
2021/07/06 10:48:48;;;;;;;4.93;1.95;;;;;;;25.79;36.60;98613.09;4987749;28;20134;-76
2021/07/06 10:51:35;;;;;;;2.63;1.48;;;;;;;25.81;36.48;98611.03;4987833;28;20038;-75
2021/07/06 10:54:04;;;;;;;4.63;1.27;;;;;;;26.07;36.63;98607.63;4987663;28;20121;-75
2021/07/06 10:56:34;;;;;;;2.03;1.42;;;;;;;26.02;37.41;98608.22;4987777;28;20034;-76
2021/07/06 10:59:02;;;;;;;1.65;1.45;;;;;;;26.69;35.94;98621.84;4988065;28;20046;-76
2021/07/06 11:02:07;;;;;;;5.68;1.52;;;;;;;26.42;34.76;98624.50;4988218;28;20751;-76
2021/07/06 11:04:50;;;;;;;5.13;1.90;;;;;;;25.46;36.13;98616.50;4985313;28;20038;-75
2021/07/06 11:07:28;;;;;;;1.80;1.25;;;;;;;25.41;36.46;98625.19;4987450;28;20030;-77
2021/07/06 11:09:54;;;;;;;4.60;1.58;;;;;;;24.91;37.55;98619.06;4987463;28;20042;-75
2021/07/06 11:12:21;;;;;;;3.38;1.50;;;;;;;24.71;37.17;98612.66;4987172;28;20093;-75
2021/07/06 11:14:47;;;;;;;1.75;1.20;;;;;;;24.55;38.05;98617.31;4987152;28;20034;-75
2021/07/06 11:17:13;;;;;;;2.78;1.30;;;;;;;24.54;38.68;98612.09;4987065;28;20114;-75
2021/07/06 11:19:41;;;;;;;9.68;1.58;;;;;;;24.55;37.15;98606.53;4987788;28;20052;-76
2021/07/06 11:22:14;;;;;;;3.67;1.40;;;;;;;24.27;38.13;98632.53;4987146;28;20050;-76
2021/07/06 11:24:48;;;;;;;5.72;1.52;;;;;;;23.88;38.70;98621.16;4987774;28;20053;-76
2021/07/06 11:27:35;;;;;;;3.53;1.38;;;;;;;23.59;39.61;98619.34;4987949;28;20030;-75
2021/07/06 11:30:23;;;;;;;3.33;1.40;;;;;;;23.52;39.66;98626.47;4987942;28;20085;-75
2021/07/06 11:33:05;;;;;;;2.97;1.20;;;;;;;23.23;40.03;98638.06;4987218;28;20041;-74
2021/07/06 11:35:33;;;;;;;4.50;1.33;;;;;;;23.23;40.17;98633.53;4987870;28;20037;-75